Terminal Aerodrome Forecast
Issued by NWS

Home | Current Version | Previous Version | Text Only | Print | Product List | Glossary On
Versions: 1 2 3 4 5 6 7 8 9 10 11 12 13 14
953
FTUS41 KPBZ 210520
TAFBVI
TAF
KBVI 210520Z 2106/2206 00000KT P6SM SKC
     FM210700 00000KT 3SM BR SKC
     FM210800 00000KT 1SM BR SCT003
     FM211000 00000KT 1/4SM FG VV002
     FM211300 VRB03KT P6SM SCT040
      AMD NOT SKED 2106/2112=

USA.gov is the U.S. government's official web portal to all federal, state and local government web resources and services.